Time;durP1;ratioP1;P1;durP2;ratioP2;P2;SDS_P1;SDS_P2;PMS_P1;PMS_P2;Temp;Humidity;BMP_temperature;BMP_pressure;BME280_temperature;BME280_humidity;BME280_pressure;Samples;Min_cycle;Max_cycle;Signal;HPM_P1;HPM_P2
2022/05/28 00:00:42;;;;;;;5.40;2.03;;;12.20;99.90;;;;;;4591971;19;20018;-23
2022/05/28 00:02:14;;;;;;;5.72;2.70;;;12.20;99.90;;;;;;4591951;19;20019;-22
2022/05/28 00:03:46;;;;;;;5.53;2.72;;;12.20;99.90;;;;;;4592849;19;20018;-22
2022/05/28 00:05:17;;;;;;;7.33;3.33;;;12.20;99.90;;;;;;4590507;19;20370;-23
2022/05/28 00:06:48;;;;;;;7.57;2.80;;;12.20;99.90;;;;;;4591650;19;20425;-23
2022/05/28 00:08:19;;;;;;;6.03;2.45;;;12.20;99.90;;;;;;4591947;19;20503;-24
2022/05/28 00:09:50;;;;;;;5.75;2.30;;;12.20;99.90;;;;;;4591582;19;20014;-23
2022/05/28 00:11:23;;;;;;;7.22;2.67;;;12.20;99.90;;;;;;4590296;19;20011;-22
2022/05/28 00:12:56;;;;;;;8.27;3.63;;;12.20;99.90;;;;;;4591564;19;20017;-22
2022/05/28 00:14:27;;;;;;;5.53;2.00;;;12.20;99.90;;;;;;4591780;19;20847;-22
2022/05/28 00:15:58;;;;;;;4.97;1.83;;;12.10;99.90;;;;;;4591406;19;20455;-22
2022/05/28 00:17:29;;;;;;;5.35;2.30;;;12.30;99.90;;;;;;4590316;19;20039;-23
2022/05/28 00:19:00;;;;;;;5.28;2.20;;;12.70;99.90;;;;;;4591348;19;20022;-22
2022/05/28 00:20:33;;;;;;;7.13;2.38;;;13.10;99.90;;;;;;4591794;19;20070;-23
2022/05/28 00:22:03;;;;;;;;;;;13.40;99.90;;;;;;4592224;19;20033;-22
2022/05/28 00:23:35;;;;;;;;;;;13.60;99.90;;;;;;4592334;19;20257;-23
2022/05/28 00:25:06;;;;;;;;;;;13.80;99.90;;;;;;4593092;19;20344;-27
2022/05/28 00:26:38;;;;;;;;;;;13.90;99.90;;;;;;4593001;19;19914;-25
2022/05/28 00:28:09;;;;;;;;;;;14.00;99.90;;;;;;4592297;19;19923;-23
2022/05/28 00:29:39;;;;;;;;;;;14.10;99.90;;;;;;4591067;19;19922;-23
2022/05/28 00:31:11;;;;;;;;;;;14.20;99.90;;;;;;4592528;19;19918;-24
2022/05/28 00:32:42;;;;;;;;;;;14.30;99.90;;;;;;4592524;19;19918;-25
2022/05/28 00:34:13;;;;;;;;;;;14.30;99.90;;;;;;4592414;19;19919;-23
2022/05/28 00:35:44;;;;;;;;;;;14.40;99.90;;;;;;4592647;19;19948;-23
2022/05/28 00:37:15;;;;;;;;;;;14.40;99.90;;;;;;4593033;19;19911;-23
2022/05/28 00:38:48;;;;;;;;;;;14.40;99.90;;;;;;4591691;19;20234;-24
2022/05/28 00:40:20;;;;;;;;;;;14.50;99.90;;;;;;4591932;19;19915;-25
2022/05/28 00:41:51;;;;;;;;;;;14.60;99.90;;;;;;4592705;19;19918;-23
2022/05/28 00:43:22;;;;;;;;;;;14.60;99.90;;;;;;4592594;19;19917;-23
2022/05/28 00:44:54;;;;;;;;;;;14.60;99.90;;;;;;4591833;19;20402;-25
2022/05/28 00:46:25;;;;;;;;;;;14.60;99.90;;;;;;4592301;19;19938;-23
2022/05/28 00:47:56;;;;;;;;;;;14.70;99.90;;;;;;4590775;19;20016;-24
2022/05/28 00:49:29;;;;;;;;;;;14.70;99.90;;;;;;4591222;19;19915;-27
2022/05/28 00:51:03;;;;;;;;;;;14.70;99.90;;;;;;4591608;19;19940;-23
2022/05/28 00:52:34;;;;;;;;;;;14.70;99.90;;;;;;4592161;19;19922;-25
2022/05/28 00:54:05;;;;;;;;;;;14.70;99.90;;;;;;4590784;19;20234;-23
2022/05/28 00:55:36;;;;;;;;;;;14.80;99.90;;;;;;4590503;19;19915;-23
2022/05/28 00:57:08;;;;;;;;;;;14.80;99.90;;;;;;4590573;19;19919;-23
2022/05/28 00:58:39;;;;;;;;;;;14.80;99.90;;;;;;4591616;19;19964;-26
2022/05/28 01:00:13;;;;;;;;;;;14.80;99.90;;;;;;4592056;19;19926;-23
2022/05/28 01:01:44;;;;;;;;;;;14.80;99.90;;;;;;4591443;19;19915;-24
2022/05/28 01:03:27;;;;;;;;;;;14.80;99.90;;;;;;4591772;19;19986;-23
2022/05/28 01:05:09;;;;;;;;;;;14.80;99.90;;;;;;4591675;19;19929;-23
2022/05/28 01:06:43;;;;;;;;;;;14.80;99.90;;;;;;4590417;19;19915;-23
2022/05/28 01:08:15;;;;;;;;;;;14.80;99.90;;;;;;4591935;19;19926;-24
2022/05/28 01:09:46;;;;;;;;;;;14.90;99.90;;;;;;4590236;19;19915;-26
2022/05/28 01:11:21;;;;;;;;;;;14.80;99.90;;;;;;4591294;19;19918;-24
2022/05/28 01:12:55;;;;;;;;;;;14.90;99.90;;;;;;4590362;19;19918;-24
2022/05/28 01:14:45;;;;;;;;;;;14.90;99.90;;;;;;4591399;19;19917;-24
2022/05/28 01:16:24;;;;;;;;;;;14.90;99.90;;;;;;4591192;19;19922;-24
2022/05/28 01:17:59;;;;;;;;;;;14.90;99.90;;;;;;4590336;19;20008;-23
2022/05/28 01:19:36;;;;;;;;;;;14.90;99.90;;;;;;4589207;19;19978;-27
2022/05/28 01:21:09;;;;;;;;;;;14.90;99.90;;;;;;4590732;19;19923;-24
2022/05/28 01:22:59;;;;;;;;;;;14.90;99.90;;;;;;4590927;19;20309;-24
2022/05/28 01:24:30;;;;;;;;;;;15.00;99.90;;;;;;4591214;19;19915;-24
2022/05/28 01:26:27;;;;;;;;;;;15.00;99.90;;;;;;4590203;19;19970;-23
2022/05/28 01:28:01;;;;;;;;;;;15.00;99.90;;;;;;4588970;19;19987;-23
2022/05/28 01:29:35;;;;;;;;;;;15.00;99.90;;;;;;4589113;19;19919;-23
2022/05/28 01:31:06;;;;;;;;;;;15.00;99.90;;;;;;4589081;19;19929;-24
2022/05/28 01:32:36;;;;;;;;;;;15.00;99.90;;;;;;4588957;19;19911;-26
2022/05/28 01:34:08;;;;;;;;;;;15.00;99.90;;;;;;4589255;19;19952;-23
2022/05/28 01:35:39;;;;;;;;;;;15.00;99.90;;;;;;4589578;19;19915;-25
2022/05/28 01:37:09;;;;;;;;;;;14.90;99.90;;;;;;4588854;19;19927;-23
2022/05/28 01:38:41;;;;;;;;;;;14.90;99.90;;;;;;4588716;19;19943;-23
2022/05/28 01:40:12;;;;;;;;;;;15.00;99.90;;;;;;4588726;19;19925;-23
2022/05/28 01:41:43;;;;;;;;;;;15.00;99.90;;;;;;4589378;19;20283;-25
2022/05/28 01:43:15;;;;;;;;;;;15.00;99.90;;;;;;4588794;19;19935;-27
2022/05/28 01:44:46;;;;;;;;;;;15.10;99.90;;;;;;4588705;19;19921;-24
2022/05/28 01:46:18;;;;;;;;;;;15.10;99.90;;;;;;4588761;19;20007;-24
2022/05/28 01:47:49;;;;;;;;;;;15.10;99.90;;;;;;4589017;19;19918;-25
2022/05/28 01:49:20;;;;;;;;;;;15.10;99.90;;;;;;4588700;19;19918;-24
2022/05/28 01:50:53;;;;;;;;;;;15.00;99.90;;;;;;4588837;19;19910;-24
2022/05/28 01:52:24;;;;;;;;;;;15.00;99.90;;;;;;4588902;19;20002;-27
2022/05/28 01:54:07;;;;;;;;;;;15.00;99.90;;;;;;4588902;19;19958;-24
2022/05/28 01:55:39;;;;;;;;;;;15.10;99.90;;;;;;4588474;19;19915;-23
2022/05/28 01:57:10;;;;;;;;;;;15.10;99.90;;;;;;4588810;19;20250;-25
2022/05/28 01:58:41;;;;;;;;;;;15.00;99.90;;;;;;4588683;19;19919;-25
2022/05/28 02:00:14;;;;;;;;;;;15.00;99.90;;;;;;4588109;19;19919;-24
2022/05/28 02:01:45;;;;;;;;;;;15.00;99.90;;;;;;4588424;19;19922;-24
2022/05/28 02:03:16;;;;;;;;;;;15.10;99.90;;;;;;4588459;19;19911;-23
2022/05/28 02:04:47;;;;;;;;;;;15.10;99.90;;;;;;4589193;19;19966;-24
2022/05/28 02:06:18;;;;;;;;;;;15.10;99.90;;;;;;4589210;19;20266;-24
2022/05/28 02:07:49;;;;;;;;;;;15.00;99.90;;;;;;4590265;19;19951;-24
2022/05/28 02:09:24;;;;;;;;;;;15.10;99.90;;;;;;4590871;19;19914;-24
2022/05/28 02:10:58;;;;;;;;;;;15.10;99.90;;;;;;4590743;19;20478;-23
2022/05/28 02:12:33;;;;;;;;;;;15.10;99.90;;;;;;4589287;19;19918;-23
2022/05/28 02:14:17;;;;;;;;;;;15.10;99.90;;;;;;4589231;19;20325;-22
2022/05/28 02:15:48;;;;;;;;;;;15.10;99.90;;;;;;4589763;19;19936;-23
2022/05/28 02:17:26;;;;;;;;;;;15.10;99.90;;;;;;4589368;19;20318;-30
2022/05/28 02:19:01;;;;;;;;;;;15.10;99.90;;;;;;4589791;19;19915;-25
2022/05/28 02:20:38;;;;;;;;;;;15.10;99.90;;;;;;4590195;19;20259;-25
2022/05/28 02:22:15;;;;;;;;;;;15.10;99.90;;;;;;4589110;19;19919;-23
2022/05/28 02:23:49;;;;;;;;;;;15.10;99.90;;;;;;4589809;19;19919;-24
2022/05/28 02:25:39;;;;;;;;;;;15.10;99.90;;;;;;4589820;19;19986;-24
2022/05/28 02:27:14;;;;;;;;;;;15.10;99.90;;;;;;4589162;19;19915;-28
2022/05/28 02:28:45;;;;;;;;;;;15.10;99.90;;;;;;4589603;19;19918;-23
2022/05/28 02:30:16;;;;;;;;;;;15.10;99.90;;;;;;4589626;19;20341;-25
2022/05/28 02:31:47;;;;;;;;;;;15.10;99.90;;;;;;4589124;19;19962;-25
2022/05/28 02:33:18;;;;;;;;;;;15.10;99.90;;;;;;4589505;19;20347;-23
2022/05/28 02:34:50;;;;;;;;;;;15.10;99.90;;;;;;4590385;19;19932;-23
2022/05/28 02:36:22;;;;;;;;;;;15.10;99.90;;;;;;4590604;19;19974;-22
2022/05/28 02:37:53;;;;;;;;;;;15.10;99.90;;;;;;4591203;19;20381;-23
2022/05/28 02:39:23;;;;;;;;;;;15.10;99.90;;;;;;4593162;19;19911;-22
2022/05/28 02:40:54;;;;;;;;;;;15.20;99.90;;;;;;4593702;19;19928;-25
2022/05/28 02:42:26;;;;;;;;;;;15.20;99.90;;;;;;4594284;19;19914;-23
2022/05/28 02:43:57;;;;;;;;;;;15.20;99.90;;;;;;4594269;19;20304;-22
2022/05/28 02:45:28;;;;;;;;;;;15.10;99.90;;;;;;4594346;19;19918;-24
2022/05/28 02:46:59;;;;;;;;;;;15.20;99.90;;;;;;4593584;19;19914;-25
2022/05/28 02:48:30;;;;;;;;;;;15.20;99.90;;;;;;4594729;19;19940;-23
2022/05/28 02:50:01;;;;;;;;;;;15.20;99.90;;;;;;4594178;19;19911;-22
2022/05/28 02:51:32;;;;;;;;;;;15.20;99.90;;;;;;4593188;19;19922;-26
2022/05/28 02:53:03;;;;;;;;;;;15.20;99.90;;;;;;4594212;19;19915;-23
2022/05/28 02:54:35;;;;;;;;;;;15.10;99.90;;;;;;4594875;19;19978;-23
2022/05/28 02:56:06;;;;;;;;;;;15.10;99.90;;;;;;4594312;19;19919;-25
2022/05/28 02:57:37;;;;;;;;;;;15.10;99.90;;;;;;4593175;19;19921;-24
2022/05/28 02:59:08;;;;;;;;;;;15.20;99.90;;;;;;4593716;19;19911;-25
2022/05/28 03:00:39;;;;;;;;;;;15.10;99.90;;;;;;4594444;19;20325;-23
2022/05/28 03:02:10;;;;;;;;;;;15.20;99.90;;;;;;4594284;19;19919;-23
2022/05/28 03:03:40;;;;;;;;;;;15.20;99.90;;;;;;4594286;19;19914;-26
2022/05/28 03:05:12;;;;;;;;;;;15.20;99.90;;;;;;4594572;19;19910;-23
2022/05/28 03:06:43;;;;;;;;;;;15.20;99.90;;;;;;4592884;19;19926;-26
2022/05/28 03:08:14;;;;;;;;;;;15.20;99.90;;;;;;4593419;19;19923;-24
2022/05/28 03:09:45;;;;;;;;;;;15.20;99.90;;;;;;4594703;19;19914;-23
2022/05/28 03:11:16;;;;;;;;;;;15.20;99.90;;;;;;4594597;19;19959;-24
2022/05/28 03:12:48;;;;;;;;;;;15.20;99.90;;;;;;4593839;19;19922;-23
2022/05/28 03:14:18;;;;;;;;;;;15.20;99.90;;;;;;4594089;19;19915;-24
2022/05/28 03:15:49;;;;;;;;;;;15.10;99.90;;;;;;4594323;19;19919;-24
2022/05/28 03:17:20;;;;;;;;;;;15.20;99.90;;;;;;4592653;19;19995;-25
2022/05/28 03:18:51;;;;;;;;;;;15.20;99.90;;;;;;4593690;19;19966;-25
2022/05/28 03:20:22;;;;;;;;;;;15.10;99.90;;;;;;4594132;19;19926;-25
2022/05/28 03:21:53;;;;;;;;;;;15.10;99.90;;;;;;4594374;19;19921;-23
2022/05/28 03:23:24;;;;;;;;;;;15.10;99.90;;;;;;4593482;19;20325;-23
2022/05/28 03:24:55;;;;;;;;;;;15.20;99.90;;;;;;4593616;19;20321;-22
2022/05/28 03:26:26;;;;;;;;;;;15.10;99.90;;;;;;4593439;19;19942;-23
2022/05/28 03:27:58;;;;;;;;;;;15.10;99.90;;;;;;4593996;19;19918;-23
2022/05/28 03:29:28;;;;;;;;;;;15.10;99.90;;;;;;4593358;19;19915;-24
2022/05/28 03:31:00;;;;;;;;;;;15.10;99.90;;;;;;4593833;19;19915;-25
2022/05/28 03:32:31;;;;;;;;;;;15.20;99.90;;;;;;4593626;19;19923;-24
2022/05/28 03:34:02;;;;;;;;;;;15.20;99.90;;;;;;4593998;19;19915;-23
2022/05/28 03:35:33;;;;;;;;;;;15.10;99.90;;;;;;4592428;19;19952;-26
2022/05/28 03:37:04;;;;;;;;;;;15.20;99.90;;;;;;4593282;19;19930;-26
2022/05/28 03:38:35;;;;;;;;;;;15.20;99.90;;;;;;4593942;19;19982;-23
2022/05/28 03:40:06;;;;;;;;;;;15.20;99.90;;;;;;4591743;19;19915;-23
2022/05/28 03:41:37;;;;;;;;;;;15.20;99.90;;;;;;4593241;19;19946;-23
2022/05/28 03:43:09;;;;;;;;;;;15.20;99.90;;;;;;4593736;19;19919;-25
2022/05/28 03:44:40;;;;;;;;;;;15.20;99.90;;;;;;4593432;19;20342;-24
2022/05/28 03:46:21;;;;;;;;;;;15.20;99.90;;;;;;4593088;19;19915;-23
2022/05/28 03:47:51;;;;;;;;;;;15.20;99.90;;;;;;4593403;19;19922;-25
2022/05/28 03:49:25;;;;;;;;;;;15.20;99.90;;;;;;4592622;19;20285;-24
2022/05/28 03:50:56;;;;;;;;;;;15.20;99.90;;;;;;4593670;19;19967;-23
2022/05/28 03:52:27;;;;;;;;;;;15.20;99.90;;;;;;4592837;19;19911;-26
2022/05/28 03:53:58;;;;;;;;;;;15.30;99.90;;;;;;4593314;19;19917;-23
2022/05/28 03:55:29;;;;;;;;;;;15.20;99.90;;;;;;4593534;19;19948;-26
2022/05/28 03:57:02;;;;;;;;;;;15.20;99.90;;;;;;4592031;19;19915;-24
2022/05/28 03:58:33;;;;;;;;;;;15.30;99.90;;;;;;4592589;19;19911;-23
2022/05/28 04:00:05;;;;;;;;;;;15.20;99.90;;;;;;4592268;19;19935;-24
2022/05/28 04:01:36;;;;;;;;;;;15.20;99.90;;;;;;4593447;19;19914;-24
2022/05/28 04:03:07;;;;;;;;;;;15.20;99.90;;;;;;4591754;19;19922;-23
2022/05/28 04:04:38;;;;;;;;;;;15.20;99.90;;;;;;4591549;19;20351;-24
2022/05/28 04:06:09;;;;;;;;;;;15.20;99.90;;;;;;4592919;19;19922;-23
2022/05/28 04:07:40;;;;;;;;;;;15.20;99.90;;;;;;4592000;19;19934;-26
2022/05/28 04:09:11;;;;;;;;;;;15.20;99.90;;;;;;4592234;19;20274;-25
2022/05/28 04:10:42;;;;;;;;;;;15.20;99.90;;;;;;4591756;19;19915;-24
2022/05/28 04:12:13;;;;;;;;;;;15.20;99.90;;;;;;4592610;19;19919;-23
2022/05/28 04:13:44;;;;;;;;;;;15.20;99.90;;;;;;4593165;19;19971;-25
2022/05/28 04:15:15;;;;;;;;;;;15.20;99.90;;;;;;4591749;19;19919;-23
2022/05/28 04:16:46;;;;;;;;;;;15.20;99.90;;;;;;4591225;19;20016;-23
2022/05/28 04:18:17;;;;;;;;;;;15.20;99.90;;;;;;4592490;19;19923;-24
2022/05/28 04:19:48;;;;;;;;;;;15.20;99.90;;;;;;4592440;19;19970;-23
2022/05/28 04:21:19;;;;;;;;;;;15.10;99.90;;;;;;4592358;19;19910;-24
2022/05/28 04:22:50;;;;;;;;;;;15.10;99.90;;;;;;4592148;19;20244;-25
2022/05/28 04:24:21;;;;;;;;;;;15.10;99.90;;;;;;4592656;19;20329;-23
2022/05/28 04:25:52;;;;;;;;;;;15.20;99.90;;;;;;4592203;19;19914;-24
2022/05/28 04:27:23;;;;;;;;;;;15.20;99.90;;;;;;4592302;19;19982;-24
2022/05/28 04:28:54;;;;;;;;;;;15.20;99.90;;;;;;4592222;19;20325;-23
2022/05/28 04:30:25;;;;;;;;;;;15.20;99.90;;;;;;4592858;19;19918;-24
2022/05/28 04:31:56;;;;;;;;;;;15.20;99.90;;;;;;4591307;19;19986;-23
2022/05/28 04:33:27;;;;;;;;;;;15.10;99.90;;;;;;4592149;19;19915;-24
2022/05/28 04:34:58;;;;;;;;;;;15.10;99.90;;;;;;4591469;19;19921;-23
2022/05/28 04:36:28;;;;;;;;;;;15.10;99.90;;;;;;4591811;19;19919;-23
2022/05/28 04:37:59;;;;;;;;;;;15.10;99.90;;;;;;4592285;19;19925;-25
2022/05/28 04:39:30;;;;;;;;;;;15.10;99.90;;;;;;4591614;19;19923;-26
2022/05/28 04:41:01;;;;;;;;;;;15.10;99.90;;;;;;4590852;19;19919;-23
2022/05/28 04:42:32;;;;;;;;;;;15.10;99.90;;;;;;4591413;19;19974;-23
2022/05/28 04:44:03;;;;;;;;;;;15.10;99.90;;;;;;4592276;19;19974;-25
2022/05/28 04:45:34;;;;;;;;;;;15.00;99.90;;;;;;4592161;19;19942;-24
2022/05/28 04:47:05;;;;;;;;;;;14.90;99.90;;;;;;4592206;19;19935;-24
2022/05/28 04:48:36;;;;;;;;;;;15.00;99.90;;;;;;4591821;19;19915;-23
2022/05/28 04:50:07;;;;;;;;;;;15.10;99.90;;;;;;4592034;19;20306;-23
2022/05/28 04:51:38;;;;;;;;;;;15.10;99.90;;;;;;4592386;19;19911;-25
2022/05/28 04:53:09;;;;;;;;;;;15.10;99.90;;;;;;4592722;19;19928;-24
2022/05/28 04:54:40;;;;;;;;;;;15.20;99.90;;;;;;4591965;19;19922;-27
2022/05/28 04:56:11;;;;;;;;;;;15.20;99.90;;;;;;4592134;19;19923;-22
2022/05/28 04:57:42;;;;;;;;;;;15.20;99.90;;;;;;4590980;19;19921;-24
2022/05/28 04:59:13;;;;;;;;;;;15.20;99.90;;;;;;4591097;19;20249;-25
2022/05/28 05:00:44;;;;;;;;;;;15.10;99.90;;;;;;4590169;19;19911;-24
2022/05/28 05:02:15;;;;;;;;;;;15.20;99.90;;;;;;4591961;19;20333;-24
2022/05/28 05:03:46;;;;;;;;;;;15.10;99.90;;;;;;4591907;19;19942;-24
2022/05/28 05:05:17;;;;;;;;;;;15.10;99.90;;;;;;4591379;19;19915;-27
2022/05/28 05:06:48;;;;;;;;;;;15.10;99.90;;;;;;4591795;19;19932;-26
2022/05/28 05:08:19;;;;;;;;;;;15.20;99.90;;;;;;4592089;19;19927;-23
2022/05/28 05:09:50;;;;;;;;;;;15.10;99.90;;;;;;4591746;19;19923;-24
2022/05/28 05:11:21;;;;;;;;;;;15.10;99.90;;;;;;4591532;19;19919;-24
2022/05/28 05:12:52;;;;;;;;;;;15.10;99.90;;;;;;4591904;19;19932;-23
2022/05/28 05:14:23;;;;;;;;;;;15.10;99.90;;;;;;4591603;19;19922;-24
2022/05/28 05:15:54;;;;;;;;;;;15.20;99.90;;;;;;4591205;19;19915;-24
2022/05/28 05:17:25;;;;;;;;;;;15.20;99.90;;;;;;4590616;19;19978;-23
2022/05/28 05:18:59;;;;;;;;;;;15.20;99.90;;;;;;4589022;19;19927;-24
2022/05/28 05:20:30;;;;;;;;;;;15.10;99.90;;;;;;4590018;19;20337;-24
2022/05/28 05:22:01;;;;;;;;;;;15.20;99.90;;;;;;4590523;19;19939;-23
2022/05/28 05:23:32;;;;;;;;;;;15.10;99.90;;;;;;4590346;19;20234;-23
2022/05/28 05:25:03;;;;;;;;;;;15.20;99.90;;;;;;4590190;19;19919;-24
2022/05/28 05:26:34;;;;;;;;;;;15.20;99.90;;;;;;4591517;19;19919;-24
2022/05/28 05:28:05;;;;;;;;;;;15.20;99.90;;;;;;4591101;19;19970;-26
2022/05/28 05:29:37;;;;;;;;;;;15.10;99.90;;;;;;4591628;19;19907;-25
2022/05/28 05:31:08;;;;;;;;;;;15.10;99.90;;;;;;4591669;19;19919;-24
2022/05/28 05:32:39;;;;;;;;;;;15.00;99.90;;;;;;4589785;19;20270;-24
2022/05/28 05:34:10;;;;;;;;;;;15.00;99.90;;;;;;4590708;19;19919;-23
2022/05/28 05:35:40;;;;;;;;;;;15.00;99.90;;;;;;4590274;19;19935;-23
2022/05/28 05:37:12;;;;;;;;;;;15.00;99.90;;;;;;4591109;19;19983;-27
2022/05/28 05:38:43;;;;;;;;;;;15.00;99.90;;;;;;4590903;19;19921;-25
2022/05/28 05:40:14;;;;;;;;;;;15.00;99.90;;;;;;4590034;19;19933;-26
2022/05/28 05:41:45;;;;;;;;;;;15.10;99.90;;;;;;4591055;19;20265;-23
2022/05/28 05:43:16;;;;;;;;;;;15.10;99.90;;;;;;4591495;19;19915;-22
2022/05/28 05:44:47;;;;;;;;;;;15.10;99.90;;;;;;4590993;19;20006;-23
2022/05/28 05:46:18;;;;;;;;;;;15.20;99.90;;;;;;4590878;19;19942;-24
2022/05/28 05:47:49;;;;;;;;;;;15.20;99.90;;;;;;4590482;19;20269;-24
2022/05/28 05:49:19;;;;;;;;;;;15.10;99.90;;;;;;4590134;19;19919;-24
2022/05/28 05:50:50;;;;;;;;;;;15.20;99.90;;;;;;4590966;19;19925;-26
2022/05/28 05:52:21;;;;;;;;;;;15.20;99.90;;;;;;4590874;19;19923;-23
2022/05/28 05:53:52;;;;;;;;;;;15.20;99.90;;;;;;4591711;19;19915;-24
2022/05/28 05:55:23;;;;;;;;;;;15.20;99.90;;;;;;4590575;19;19966;-23
2022/05/28 05:56:54;;;;;;;;;;;15.20;99.90;;;;;;4590323;19;20304;-23
2022/05/28 05:58:25;;;;;;;;;;;15.30;99.90;;;;;;4591178;19;19914;-24
2022/05/28 05:59:57;;;;;;;;;;;15.20;99.90;;;;;;4590383;19;19921;-26
2022/05/28 06:01:28;;;;;;;;;;;15.30;99.90;;;;;;4590512;19;19918;-25
2022/05/28 06:02:59;;;;;;;;;;;15.30;99.90;;;;;;4591182;19;19955;-24
2022/05/28 06:04:30;;;;;;;;;;;15.30;99.90;;;;;;4591137;19;19913;-25
2022/05/28 06:06:01;;;;;;;;;;;15.30;99.90;;;;;;4590434;19;19921;-25
2022/05/28 06:07:32;;;;;;;;;;;15.30;99.90;;;;;;4590456;19;20337;-23
2022/05/28 06:09:03;;;;;;;;;;;15.30;99.90;;;;;;4590683;19;19974;-26
2022/05/28 06:10:34;;;;;;;;;;;15.30;99.90;;;;;;4591074;19;19911;-24
2022/05/28 06:12:05;;;;;;;;;;;15.20;99.90;;;;;;4593104;19;19918;-25
2022/05/28 06:13:36;;;;;;;;;;;15.20;99.90;;;;;;4595186;19;20241;-23
2022/05/28 06:15:08;;;;;;;;;;;15.20;99.90;;;;;;4595379;19;19970;-23
2022/05/28 06:16:39;;;;;;;;;;;15.20;99.90;;;;;;4594605;19;19926;-23
2022/05/28 06:18:12;;;;;;;;;;;15.20;99.90;;;;;;4594900;19;19975;-25
2022/05/28 06:19:43;;;;;;;;;;;15.20;99.90;;;;;;4594242;19;19910;-23
2022/05/28 06:21:14;;;;;;;;;;;15.20;99.90;;;;;;4595547;19;19923;-25
2022/05/28 06:22:44;;;;;;;;;;;15.20;99.90;;;;;;4594709;19;19919;-25
2022/05/28 06:24:15;;;;;;;;;;;15.20;99.90;;;;;;4595067;19;19922;-28
2022/05/28 06:25:46;;;;;;;;;;;15.30;99.90;;;;;;4595303;19;19911;-27
2022/05/28 06:27:17;;;;;;;;;;;15.30;99.90;;;;;;4595093;19;20049;-25
2022/05/28 06:28:48;;;;;;;;;;;15.30;99.90;;;;;;4594559;19;19930;-23
2022/05/28 06:30:19;;;;;;;;;;;15.40;99.90;;;;;;4594960;19;19914;-24
2022/05/28 06:31:50;;;;;;;;;;;15.40;99.90;;;;;;4595225;19;19911;-27
2022/05/28 06:33:21;;;;;;;;;;;15.40;99.90;;;;;;4594977;19;19914;-24
2022/05/28 06:34:53;;;;;;;;;;;15.30;99.90;;;;;;4594512;19;19932;-26
2022/05/28 06:36:24;;;;;;;;;;;15.20;99.90;;;;;;4594707;19;19923;-24
2022/05/28 06:37:55;;;;;;;;;;;15.20;99.90;;;;;;4594321;19;20325;-22
2022/05/28 06:39:26;;;;;;;;;;;15.20;99.90;;;;;;4593997;19;20381;-23
2022/05/28 06:40:57;;;;;;;;;;;15.40;99.90;;;;;;4594818;19;19915;-23
2022/05/28 06:42:28;;;;;;;;;;;15.40;99.90;;;;;;4594919;19;19990;-23
2022/05/28 06:44:00;;;;;;;;;;;15.50;99.80;;;;;;4594627;19;19915;-24
2022/05/28 06:45:31;;;;;;;;;;;15.60;99.80;;;;;;4594329;19;19914;-28
2022/05/28 06:47:03;;;;;;;;;;;15.70;99.90;;;;;;4594307;19;19926;-27
2022/05/28 06:48:35;;;;;;;;;;;15.70;99.70;;;;;;4594678;19;19915;-24
2022/05/28 06:51:56;;;;;;;;;;;15.70;99.90;;;;;;4594264;19;19910;-24
2022/05/28 06:53:40;;;;;;;;;;;14.30;99.90;;;;;;4594046;19;19934;-26
2022/05/28 06:55:11;;;;;;;;;;;13.70;99.90;;;;;;4592911;19;20266;-27
2022/05/28 06:56:42;;;;;;;;;;;13.50;99.90;;;;;;4594110;19;19921;-23
2022/05/28 06:58:13;;;;;;;;;;;13.40;99.90;;;;;;4592764;19;19918;-24
2022/05/28 06:59:44;;;;;;;;;;;13.40;99.90;;;;;;4592964;19;19921;-26
2022/05/28 07:01:15;;;;;;;;;;;13.40;99.90;;;;;;4594442;19;19966;-25
2022/05/28 07:02:46;;;;;;;;;;;13.30;99.90;;;;;;4594191;19;19935;-23
2022/05/28 07:04:17;;;;;;;;;;;13.30;99.90;;;;;;4593714;19;20307;-23
2022/05/28 07:05:49;;;;;;;;;;;13.30;99.90;;;;;;4593930;19;19915;-23
2022/05/28 07:07:20;;;;;;;;;;;13.30;99.90;;;;;;4593139;19;19926;-22
2022/05/28 07:08:51;;;;;;;;;;;13.30;99.90;;;;;;4593787;19;19938;-23
2022/05/28 07:10:22;;;;;;;;;;;13.30;99.90;;;;;;4593598;19;20336;-24
2022/05/28 07:11:53;;;;;;;;;;;13.40;99.90;;;;;;4594046;19;19974;-26
2022/05/28 07:13:24;;;;;;;;;;;13.40;99.90;;;;;;4593960;19;19919;-24
2022/05/28 07:14:55;;;;;;;;;;;13.30;99.90;;;;;;4594437;19;20301;-26
2022/05/28 07:16:26;;;;;;;;;;;13.30;99.90;;;;;;4593377;19;19919;-24
2022/05/28 07:17:57;;;;;;;;;;;13.20;99.90;;;;;;4593505;19;20340;-23
2022/05/28 07:19:29;;;;;;;2.00;1.10;;;12.90;99.90;;;;;;4592846;19;19923;-24
2022/05/28 07:21:00;;;;;;;1.60;1.20;;;12.60;99.90;;;;;;4592510;19;20033;-23
2022/05/28 07:22:31;;;;;;;2.30;1.48;;;12.40;99.90;;;;;;4592856;19;20546;-23
2022/05/28 07:24:02;;;;;;;1.65;1.25;;;12.20;99.90;;;;;;4590292;19;20003;-24
2022/05/28 07:25:33;;;;;;;2.45;1.08;;;12.20;99.90;;;;;;4592895;19;20034;-24
2022/05/28 07:27:05;;;;;;;2.95;1.60;;;12.10;99.90;;;;;;4592713;19;20010;-23
2022/05/28 07:28:36;;;;;;;2.17;1.35;;;12.00;99.90;;;;;;4592471;19;20074;-23
2022/05/28 07:30:08;;;;;;;5.55;1.20;;;12.00;99.90;;;;;;4591446;19;20006;-23
2022/05/28 07:31:39;;;;;;;;;;;12.60;99.90;;;;;;4591147;19;20018;-22
2022/05/28 07:33:10;;;;;;;;;;;13.10;99.90;;;;;;4593933;19;19947;-22
2022/05/28 07:34:42;;;;;;;;;;;13.50;99.90;;;;;;4590110;19;19919;-24
2022/05/28 07:36:22;;;;;;;;;;;13.80;99.90;;;;;;4593605;19;20317;-24
2022/05/28 07:37:53;;;;;;;;;;;14.00;99.90;;;;;;4593336;19;20038;-23
2022/05/28 07:39:24;;;;;;;;;;;14.20;99.90;;;;;;4592924;19;20358;-23
2022/05/28 07:40:55;;;;;;;;;;;14.30;99.90;;;;;;4594394;19;19945;-24
2022/05/28 07:42:26;;;;;;;;;;;14.40;99.90;;;;;;4594304;19;19919;-25
2022/05/28 07:43:57;;;;;;;;;;;14.50;99.90;;;;;;4591900;19;19922;-23
2022/05/28 07:45:29;;;;;;;;;;;14.50;99.90;;;;;;4592290;19;19919;-24
2022/05/28 07:47:04;;;;;;;;;;;14.60;99.90;;;;;;4593634;19;19926;-23
2022/05/28 07:48:35;;;;;;;;;;;14.60;99.90;;;;;;4594306;19;20322;-24
2022/05/28 07:50:06;;;;;;;;;;;14.60;99.90;;;;;;4592856;19;19946;-26
2022/05/28 07:51:36;;;;;;;;;;;14.70;99.90;;;;;;4592914;19;19926;-22
2022/05/28 07:53:08;;;;;;;;;;;14.70;99.90;;;;;;4592026;19;19939;-25
2022/05/28 07:54:39;;;;;;;;;;;14.70;99.90;;;;;;4592992;19;19943;-26
2022/05/28 07:56:10;;;;;;;;;;;14.80;99.90;;;;;;4592577;19;19970;-24
2022/05/28 07:57:41;;;;;;;;;;;14.80;99.90;;;;;;4590268;19;19922;-23
2022/05/28 07:59:12;;;;;;;;;;;14.80;99.90;;;;;;4593195;19;19978;-23
2022/05/28 08:00:43;;;;;;;;;;;14.90;99.90;;;;;;4594080;19;20329;-25
2022/05/28 08:02:14;;;;;;;;;;;14.90;99.90;;;;;;4592679;19;20364;-24
2022/05/28 08:03:45;;;;;;;;;;;14.90;99.90;;;;;;4593903;19;19925;-24
2022/05/28 08:05:16;;;;;;;;;;;14.90;99.90;;;;;;4592322;19;19986;-23
2022/05/28 08:06:47;;;;;;;;;;;14.90;99.90;;;;;;4592638;19;20241;-23
2022/05/28 08:08:18;;;;;;;;;;;14.90;99.90;;;;;;4593012;19;19939;-23
2022/05/28 08:09:49;;;;;;;;;;;15.00;99.90;;;;;;4593322;19;20007;-24
2022/05/28 08:11:20;;;;;;;;;;;15.00;99.90;;;;;;4592562;19;19951;-23
2022/05/28 08:12:51;;;;;;;;;;;15.00;99.90;;;;;;4591492;19;19919;-24
2022/05/28 08:14:22;;;;;;;;;;;15.10;99.90;;;;;;4592147;19;19967;-24
2022/05/28 08:15:54;;;;;;;;;;;15.10;99.90;;;;;;4593034;19;20340;-24
2022/05/28 08:17:25;;;;;;;;;;;15.20;99.90;;;;;;4591481;19;19974;-24
2022/05/28 08:18:56;;;;;;;;;;;15.30;99.90;;;;;;4592670;19;19915;-25
2022/05/28 08:24:10;;;;;;;;;;;15.50;99.90;;;;;;4591273;19;19918;-26
2022/05/28 08:25:41;;;;;;;;;;;15.50;99.90;;;;;;4590339;19;19933;-23
2022/05/28 08:27:12;;;;;;;;;;;15.50;99.90;;;;;;4591009;19;20523;-25
2022/05/28 08:28:43;;;;;;;;;;;15.60;99.90;;;;;;4589722;19;19930;-24
2022/05/28 08:30:14;;;;;;;;;;;15.60;99.90;;;;;;4589976;19;19914;-25
2022/05/28 08:31:45;;;;;;;;;;;15.60;99.90;;;;;;4588277;19;19911;-23
2022/05/28 08:33:16;;;;;;;;;;;15.60;99.90;;;;;;4590158;19;19923;-24
2022/05/28 08:34:47;;;;;;;;;;;15.70;99.90;;;;;;4588605;19;20329;-23
2022/05/28 08:36:18;;;;;;;;;;;15.70;99.90;;;;;;4589893;19;19914;-24
2022/05/28 08:37:49;;;;;;;;;;;15.70;99.90;;;;;;4589293;19;19919;-24
2022/05/28 08:39:20;;;;;;;;;;;15.70;99.90;;;;;;4589568;19;19918;-23
2022/05/28 08:40:51;;;;;;;;;;;15.80;99.90;;;;;;4589273;19;19930;-26
2022/05/28 08:42:23;;;;;;;;;;;15.80;99.90;;;;;;4590710;19;19932;-26
2022/05/28 08:43:54;;;;;;;;;;;15.80;99.90;;;;;;4589583;19;20245;-23
2022/05/28 08:45:25;;;;;;;;;;;15.80;99.90;;;;;;4589324;19;19918;-24
2022/05/28 08:47:15;;;;;;;;;;;15.90;99.90;;;;;;4587939;19;19931;-25
2022/05/28 08:48:52;;;;;;;8.50;3.17;;;16.00;99.90;;;;;;4589418;19;19923;-24
2022/05/28 08:50:23;;;;;;;4.60;1.27;;;16.30;99.90;;;;;;4588647;19;20026;-25
2022/05/28 08:51:55;;;;;;;;;;;16.50;99.90;;;;;;4590267;19;20021;-23
2022/05/28 08:53:28;;;;;;;;;;;16.70;99.90;;;;;;4589100;19;19918;-24
2022/05/28 08:55:06;;;;;;;;;;;16.50;99.90;;;;;;4588698;19;19974;-23
2022/05/28 08:56:37;;;;;;;;;;;16.30;99.90;;;;;;4590528;19;19911;-24